createdAt,value
2018-06-21T00:00:03.576Z,23.30
2018-06-21T00:00:37.547Z,23.30
2018-06-21T00:01:11.574Z,23.30
2018-06-21T00:01:45.684Z,23.30
2018-06-21T00:02:19.538Z,23.30
2018-06-21T00:02:53.175Z,23.30
2018-06-21T00:03:27.004Z,23.30
2018-06-21T00:04:00.914Z,23.30
2018-06-21T00:04:34.710Z,23.30
2018-06-21T00:05:08.616Z,23.30
2018-06-21T00:05:42.608Z,23.30
2018-06-21T00:06:16.699Z,23.30
2018-06-21T00:06:50.798Z,23.40
2018-06-21T00:07:24.452Z,23.30
2018-06-21T00:07:58.384Z,23.30
2018-06-21T00:08:32.477Z,23.30
2018-06-21T00:09:08.317Z,23.30
2018-06-21T00:09:43.141Z,23.30
2018-06-21T00:10:16.838Z,23.30
2018-06-21T00:10:50.643Z,23.30
2018-06-21T00:11:24.435Z,23.30
2018-06-21T00:11:58.270Z,23.30
2018-06-21T00:12:31.902Z,23.30
2018-06-21T00:13:05.771Z,23.20
2018-06-21T00:13:39.696Z,23.20
2018-06-21T00:14:13.424Z,23.20
2018-06-21T00:14:47.656Z,23.20
2018-06-21T00:15:21.680Z,23.20
2018-06-21T00:15:55.475Z,23.20
2018-06-21T00:16:29.878Z,23.20
2018-06-21T00:17:04.354Z,23.20
2018-06-21T00:17:38.704Z,23.20
2018-06-21T00:18:12.487Z,23.20
2018-06-21T00:18:47.936Z,23.20
2018-06-21T00:19:21.814Z,23.20
2018-06-21T00:19:55.532Z,23.10
2018-06-21T00:20:29.168Z,23.20
2018-06-21T00:21:03.792Z,23.20
2018-06-21T00:21:38.179Z,23.10
2018-06-21T00:22:12.102Z,23.20
2018-06-21T00:22:46.320Z,23.10
2018-06-21T00:23:19.984Z,23.10
2018-06-21T00:23:53.614Z,23.10
2018-06-21T00:24:27.579Z,23.10
2018-06-21T00:25:01.204Z,23.10
2018-06-21T00:25:35.778Z,23.20
2018-06-21T00:26:10.120Z,23.10
2018-06-21T00:26:44.431Z,23.20
2018-06-21T00:27:18.393Z,23.20
2018-06-21T00:27:52.040Z,23.10
2018-06-21T00:28:25.972Z,23.10
2018-06-21T00:28:59.769Z,23.10
2018-06-21T00:29:33.555Z,23.10
2018-06-21T00:30:07.656Z,23.10
2018-06-21T00:30:42.136Z,23.10
2018-06-21T00:31:16.400Z,23.10
2018-06-21T00:31:50.199Z,23.10
2018-06-21T00:32:24.271Z,23.10
2018-06-21T00:32:58.580Z,23.00
2018-06-21T00:33:32.474Z,23.10
2018-06-21T00:34:06.969Z,23.00
2018-06-21T00:34:41.377Z,23.00
2018-06-21T00:35:15.603Z,23.00
2018-06-21T00:35:49.583Z,23.00
2018-06-21T00:36:23.366Z,22.90
2018-06-21T00:36:57.465Z,22.90
2018-06-21T00:37:31.252Z,22.90
2018-06-21T00:38:05.057Z,22.90
2018-06-21T00:38:39.458Z,22.90
2018-06-21T00:39:13.872Z,22.90
2018-06-21T00:39:48.271Z,22.90
2018-06-21T00:40:22.682Z,22.90
2018-06-21T00:40:56.466Z,22.90
2018-06-21T00:41:30.781Z,22.90
2018-06-21T00:42:06.441Z,22.90
2018-06-21T00:42:40.219Z,22.90
2018-06-21T00:43:16.452Z,22.90
2018-06-21T00:43:56.824Z,22.90
2018-06-21T00:44:34.347Z,22.80
2018-06-21T00:45:10.477Z,22.80
2018-06-21T00:45:45.373Z,22.80
2018-06-21T00:46:19.574Z,22.80
2018-06-21T00:46:57.713Z,22.80
2018-06-21T00:47:35.944Z,22.80
2018-06-21T00:48:10.955Z,22.80
2018-06-21T00:48:48.748Z,22.80
2018-06-21T00:49:22.537Z,22.80
2018-06-21T00:49:58.175Z,22.70
2018-06-21T00:50:35.161Z,22.70
2018-06-21T00:51:10.368Z,22.70
2018-06-21T00:51:45.696Z,22.70
2018-06-21T00:52:22.153Z,22.70
2018-06-21T00:53:01.318Z,22.70
2018-06-21T00:53:37.014Z,22.70
2018-06-21T00:54:13.528Z,22.70
2018-06-21T00:54:48.171Z,22.70
2018-06-21T00:55:33.894Z,22.70
2018-06-21T00:56:17.011Z,22.70
2018-06-21T00:58:02.683Z,22.70
2018-06-21T00:58:36.733Z,22.70
2018-06-21T00:59:12.370Z,22.60
2018-06-21T00:59:47.893Z,22.60
2018-06-21T01:00:24.480Z,22.60
2018-06-21T01:01:00.506Z,22.60
2018-06-21T01:01:34.239Z,22.60
2018-06-21T01:02:07.883Z,22.60
2018-06-21T01:02:42.633Z,22.60
2018-06-21T01:03:16.966Z,22.60
2018-06-21T01:03:50.627Z,22.60
2018-06-21T01:04:24.489Z,22.60
2018-06-21T01:04:58.556Z,22.60
2018-06-21T01:05:34.223Z,22.60
2018-06-21T01:06:07.861Z,22.60
2018-06-21T01:06:41.563Z,22.60
2018-06-21T01:07:49.013Z,22.50
2018-06-21T01:08:23.484Z,22.60
2018-06-21T01:08:57.843Z,22.50
2018-06-21T01:09:31.998Z,22.50
2018-06-21T01:10:05.865Z,22.50
2018-06-21T01:10:39.891Z,22.50
2018-06-21T01:11:13.624Z,22.50
2018-06-21T01:11:48.282Z,22.50
2018-06-21T01:12:22.669Z,22.50
2018-06-21T01:12:57.586Z,22.50
2018-06-21T01:13:31.929Z,22.50
2018-06-21T01:14:07.188Z,22.50
2018-06-21T01:14:40.976Z,22.50
2018-06-21T01:15:14.839Z,22.50
2018-06-21T01:15:48.634Z,22.50
2018-06-21T01:16:22.630Z,22.50
2018-06-21T01:16:57.207Z,22.50
2018-06-21T01:17:30.881Z,22.50
2018-06-21T01:18:04.488Z,22.50
2018-06-21T01:18:38.942Z,22.50
2018-06-21T01:19:12.588Z,22.50
2018-06-21T01:19:46.192Z,22.50
2018-06-21T01:20:19.737Z,22.50
2018-06-21T01:20:53.990Z,22.50
2018-06-21T01:21:27.552Z,22.50
2018-06-21T01:22:02.009Z,22.50
2018-06-21T01:22:35.600Z,22.50
2018-06-21T01:23:10.554Z,22.50
2018-06-21T01:23:44.995Z,22.50
2018-06-21T01:24:18.720Z,22.40
2018-06-21T01:25:25.654Z,22.40
2018-06-21T01:26:33.597Z,22.40
2018-06-21T01:27:07.218Z,22.40
2018-06-21T01:27:40.823Z,22.40
2018-06-21T01:28:16.097Z,22.30
2018-06-21T01:28:49.745Z,22.30
2018-06-21T01:29:23.832Z,22.30
2018-06-21T01:29:57.421Z,22.30
2018-06-21T01:30:31.630Z,22.20
2018-06-21T01:31:05.212Z,22.30
2018-06-21T01:31:38.798Z,22.20
2018-06-21T01:32:12.440Z,22.20
2018-06-21T01:32:46.438Z,22.20
2018-06-21T01:33:20.047Z,22.10
2018-06-21T01:33:53.737Z,22.10
2018-06-21T01:34:27.325Z,22.10
2018-06-21T01:35:00.991Z,22.10
2018-06-21T01:35:34.594Z,22.00
2018-06-21T01:36:09.249Z,22.00
2018-06-21T01:36:43.453Z,22.00
2018-06-21T01:37:17.076Z,22.00
2018-06-21T01:37:51.154Z,22.00
2018-06-21T01:38:24.736Z,22.00
2018-06-21T01:38:58.376Z,21.90
2018-06-21T01:39:31.933Z,21.90
2018-06-21T01:40:05.521Z,21.90
2018-06-21T01:40:39.171Z,21.90
2018-06-21T01:41:13.775Z,21.90
2018-06-21T01:41:48.073Z,21.90
2018-06-21T01:42:21.665Z,21.80
2018-06-21T01:42:55.392Z,21.90
2018-06-21T01:43:29.020Z,21.80
2018-06-21T01:44:02.754Z,21.80
2018-06-21T01:44:36.376Z,21.80
2018-06-21T01:45:09.989Z,21.80
2018-06-21T01:45:43.582Z,21.80
2018-06-21T01:46:18.074Z,21.80
2018-06-21T01:46:51.675Z,21.70
2018-06-21T01:47:26.015Z,21.70
2018-06-21T01:47:59.616Z,21.70
2018-06-21T01:48:34.209Z,21.70
2018-06-21T01:49:08.136Z,21.70
2018-06-21T01:49:42.412Z,21.70
2018-06-21T01:50:17.327Z,21.60
2018-06-21T01:50:50.985Z,21.70
2018-06-21T01:51:24.599Z,21.70
2018-06-21T01:51:59.269Z,21.70
2018-06-21T01:52:32.895Z,21.70
2018-06-21T01:53:07.180Z,21.60
2018-06-21T01:53:41.295Z,21.70
2018-06-21T01:54:14.929Z,21.70
2018-06-21T01:54:48.581Z,21.60
2018-06-21T01:55:22.196Z,21.70
2018-06-21T01:55:55.813Z,21.70
2018-06-21T01:56:29.484Z,21.70
2018-06-21T01:57:03.227Z,21.70
2018-06-21T01:57:36.873Z,21.70
2018-06-21T01:58:11.816Z,21.70
2018-06-21T01:58:45.353Z,21.70
2018-06-21T01:59:19.017Z,21.70
2018-06-21T01:59:53.031Z,21.70
2018-06-21T02:00:26.644Z,21.70
2018-06-21T02:01:01.539Z,21.70
2018-06-21T02:01:37.728Z,21.70
2018-06-21T02:02:13.525Z,21.70
2018-06-21T02:02:49.906Z,21.70
2018-06-21T02:03:23.574Z,21.70
2018-06-21T02:03:58.279Z,21.60
2018-06-21T02:04:33.885Z,21.70
2018-06-21T02:05:09.823Z,21.70
2018-06-21T02:05:46.137Z,21.60
2018-06-21T02:06:20.995Z,21.60
2018-06-21T02:06:54.693Z,21.60
2018-06-21T02:07:29.318Z,21.60
2018-06-21T02:08:40.129Z,21.60
2018-06-21T02:09:16.633Z,21.60
2018-06-21T02:09:53.130Z,21.60
2018-06-21T02:10:30.689Z,21.60
2018-06-21T02:11:07.537Z,21.60
2018-06-21T02:11:44.532Z,21.60
2018-06-21T02:12:22.730Z,21.60
2018-06-21T02:13:03.264Z,21.60
2018-06-21T02:13:40.548Z,21.60
2018-06-21T02:14:15.767Z,21.60
2018-06-21T02:14:50.038Z,21.60
2018-06-21T02:15:25.709Z,21.60
2018-06-21T02:15:59.565Z,21.50
2018-06-21T02:16:33.141Z,21.50
2018-06-21T02:17:07.013Z,21.60
2018-06-21T02:17:40.937Z,21.50
2018-06-21T02:18:15.192Z,21.50
2018-06-21T02:18:49.583Z,21.50
2018-06-21T02:19:24.147Z,21.50
2018-06-21T02:19:57.757Z,21.50
2018-06-21T02:20:31.970Z,21.50
2018-06-21T02:21:05.755Z,21.50
2018-06-21T02:21:39.389Z,21.50
2018-06-21T02:22:13.909Z,21.50
2018-06-21T02:22:47.541Z,21.50
2018-06-21T02:23:21.416Z,21.50
2018-06-21T02:23:55.505Z,21.50
2018-06-21T02:24:29.081Z,21.50
2018-06-21T02:25:02.668Z,21.50
2018-06-21T02:25:36.255Z,21.50
2018-06-21T02:26:10.726Z,21.50
2018-06-21T02:26:44.324Z,21.40
2018-06-21T02:27:17.920Z,21.50
2018-06-21T02:27:51.492Z,21.50
2018-06-21T02:28:25.775Z,21.40
2018-06-21T02:28:59.384Z,21.50
2018-06-21T02:29:33.019Z,21.50
2018-06-21T02:30:06.786Z,21.50
2018-06-21T02:30:40.461Z,21.50
2018-06-21T02:31:14.059Z,21.50
2018-06-21T02:31:47.721Z,21.40
2018-06-21T02:32:21.411Z,21.50
2018-06-21T02:32:55.041Z,21.50
2018-06-21T02:33:28.645Z,21.50
2018-06-21T02:34:02.251Z,21.50
2018-06-21T02:34:36.829Z,21.50
2018-06-21T02:35:11.283Z,21.50
2018-06-21T02:35:45.081Z,21.50
2018-06-21T02:36:19.567Z,21.50
2018-06-21T02:36:53.273Z,21.50
2018-06-21T02:37:28.622Z,21.50
2018-06-21T02:38:02.283Z,21.50
2018-06-21T02:38:36.668Z,21.50
2018-06-21T02:39:12.721Z,21.50
2018-06-21T02:39:47.032Z,21.50
2018-06-21T02:40:21.106Z,21.50
2018-06-21T02:40:54.723Z,21.50
2018-06-21T02:41:31.125Z,21.50
2018-06-21T02:42:04.735Z,21.50
2018-06-21T02:43:15.248Z,21.50
2018-06-21T02:43:49.660Z,21.50
2018-06-21T02:44:23.395Z,21.50
2018-06-21T02:44:57.042Z,21.50
2018-06-21T02:45:30.900Z,21.50
2018-06-21T02:46:38.742Z,21.50
2018-06-21T02:47:13.118Z,21.50
2018-06-21T02:47:47.308Z,21.50
2018-06-21T02:48:21.001Z,21.50
2018-06-21T02:48:54.604Z,21.40
2018-06-21T02:49:28.533Z,21.50
2018-06-21T02:50:02.092Z,21.50
2018-06-21T02:50:37.757Z,21.40
2018-06-21T02:51:13.359Z,21.40
2018-06-21T02:51:47.078Z,21.40
2018-06-21T02:52:25.450Z,21.40
2018-06-21T02:53:01.474Z,21.40
2018-06-21T02:53:36.209Z,21.40
2018-06-21T02:54:09.754Z,21.40
2018-06-21T02:54:44.757Z,21.40
2018-06-21T02:55:18.380Z,21.40
2018-06-21T02:55:52.861Z,21.40
2018-06-21T02:56:26.509Z,21.40
2018-06-21T02:57:00.170Z,21.40
2018-06-21T02:57:33.733Z,21.40
2018-06-21T02:58:08.466Z,21.40
2018-06-21T02:59:15.358Z,21.40
2018-06-21T02:59:48.941Z,21.40
2018-06-21T03:00:23.258Z,21.40
2018-06-21T03:00:57.103Z,21.40
2018-06-21T03:01:30.663Z,21.40
2018-06-21T03:02:04.359Z,21.40
2018-06-21T03:02:37.874Z,21.40
2018-06-21T03:03:11.489Z,21.40
2018-06-21T03:03:45.626Z,21.40
2018-06-21T03:04:19.256Z,21.40
2018-06-21T03:04:52.869Z,21.40
2018-06-21T03:05:26.454Z,21.40
2018-06-21T03:06:01.438Z,21.40
2018-06-21T03:06:35.083Z,21.40
2018-06-21T03:07:09.134Z,21.40
2018-06-21T03:07:42.701Z,21.40
2018-06-21T03:08:16.303Z,21.40
2018-06-21T03:08:49.937Z,21.40
2018-06-21T03:09:24.115Z,21.40
2018-06-21T03:09:57.672Z,21.40
2018-06-21T03:10:31.853Z,21.40
2018-06-21T03:11:05.393Z,21.40
2018-06-21T03:11:39.465Z,21.40
2018-06-21T03:12:18.309Z,21.40
2018-06-21T03:12:51.985Z,21.40
2018-06-21T03:13:25.589Z,21.40
2018-06-21T03:13:59.228Z,21.40
2018-06-21T03:14:32.889Z,21.40
2018-06-21T03:15:06.793Z,21.40
2018-06-21T03:15:40.385Z,21.40
2018-06-21T03:16:14.719Z,21.40
2018-06-21T03:16:48.296Z,21.40
2018-06-21T03:17:22.260Z,21.40
2018-06-21T03:17:55.810Z,21.30
2018-06-21T03:18:29.406Z,21.40
2018-06-21T03:19:02.953Z,21.30
2018-06-21T03:19:36.571Z,21.40
2018-06-21T03:20:10.210Z,21.40
2018-06-21T03:20:43.866Z,21.30
2018-06-21T03:21:17.453Z,21.30
2018-06-21T03:21:51.042Z,21.30
2018-06-21T03:22:24.617Z,21.30
2018-06-21T03:23:31.422Z,21.30
2018-06-21T03:24:05.140Z,21.30
2018-06-21T03:24:39.245Z,21.30
2018-06-21T03:25:12.859Z,21.30
2018-06-21T03:25:46.414Z,21.30
2018-06-21T03:26:20.015Z,21.30
2018-06-21T03:26:53.583Z,21.30
2018-06-21T03:27:27.224Z,21.20
2018-06-21T03:28:00.852Z,21.30
2018-06-21T03:28:34.454Z,21.20
2018-06-21T03:29:08.078Z,21.20
2018-06-21T03:29:41.765Z,21.20
2018-06-21T03:30:48.667Z,21.20
2018-06-21T03:31:22.520Z,21.20
2018-06-21T03:32:29.412Z,21.10
2018-06-21T03:33:03.035Z,21.10
2018-06-21T03:33:36.655Z,21.10
2018-06-21T03:34:10.277Z,21.10
2018-06-21T03:34:44.261Z,21.10
2018-06-21T03:35:18.069Z,21.10
2018-06-21T03:35:51.632Z,21.10
2018-06-21T03:36:25.224Z,21.10
2018-06-21T03:36:58.817Z,21.10
2018-06-21T03:37:32.436Z,21.10
2018-06-21T03:38:06.286Z,21.10
2018-06-21T03:38:39.881Z,21.10
2018-06-21T03:39:13.687Z,21.10
2018-06-21T03:39:47.907Z,21.10
2018-06-21T03:40:22.179Z,21.10
2018-06-21T03:40:56.881Z,21.10
2018-06-21T03:41:30.774Z,21.10
2018-06-21T03:42:04.556Z,21.10
2018-06-21T03:42:38.733Z,21.10
2018-06-21T03:43:12.374Z,21.10
2018-06-21T03:43:45.964Z,21.10
2018-06-21T03:44:19.568Z,21.00
2018-06-21T03:44:53.840Z,21.10
2018-06-21T03:45:27.901Z,21.10
2018-06-21T03:46:01.536Z,21.00
2018-06-21T03:46:35.107Z,21.10
2018-06-21T03:47:08.716Z,21.10
2018-06-21T03:48:15.852Z,21.00
2018-06-21T03:48:49.498Z,21.00
2018-06-21T03:49:23.128Z,21.00
2018-06-21T03:49:56.820Z,21.00
2018-06-21T03:50:30.475Z,21.00
2018-06-21T03:51:05.532Z,21.00
2018-06-21T03:51:39.091Z,20.90
2018-06-21T03:52:12.658Z,20.90
2018-06-21T03:52:46.228Z,20.90
2018-06-21T03:53:19.846Z,20.90
2018-06-21T03:53:53.474Z,20.90
2018-06-21T03:54:27.367Z,20.90
2018-06-21T03:55:00.997Z,20.90
2018-06-21T03:55:34.524Z,20.90
2018-06-21T03:56:08.075Z,20.90
2018-06-21T03:56:41.749Z,20.90
2018-06-21T03:57:16.013Z,20.90
2018-06-21T03:57:49.639Z,21.00
2018-06-21T03:58:23.288Z,21.00
2018-06-21T03:58:56.937Z,21.00
2018-06-21T03:59:31.124Z,21.00
2018-06-21T04:00:04.989Z,21.00
2018-06-21T04:00:38.592Z,21.00
2018-06-21T04:01:12.124Z,21.00
2018-06-21T04:01:45.744Z,21.00
2018-06-21T04:02:19.437Z,21.00
2018-06-21T04:02:53.017Z,21.00
2018-06-21T04:03:26.597Z,21.00
2018-06-21T04:04:00.865Z,21.00
2018-06-21T04:04:34.531Z,20.90
2018-06-21T04:05:08.137Z,21.00
2018-06-21T04:05:41.712Z,21.00
2018-06-21T04:06:15.960Z,20.90
2018-06-21T04:06:49.519Z,21.00
2018-06-21T04:07:23.161Z,21.00
2018-06-21T04:07:57.349Z,21.00
2018-06-21T04:08:30.918Z,21.00
2018-06-21T04:09:06.462Z,21.00
2018-06-21T04:09:40.289Z,21.00
2018-06-21T04:10:13.880Z,20.90
2018-06-21T04:10:48.108Z,21.00
2018-06-21T04:11:21.665Z,20.90
2018-06-21T04:11:55.257Z,21.00
2018-06-21T04:12:29.775Z,21.00
2018-06-21T04:13:03.762Z,20.90
2018-06-21T04:13:37.317Z,21.00
2018-06-21T04:14:10.945Z,21.00
2018-06-21T04:14:45.124Z,20.90
2018-06-21T04:15:18.771Z,21.00
2018-06-21T04:15:52.993Z,20.90
2018-06-21T04:16:26.634Z,21.00
2018-06-21T04:17:00.256Z,21.00
2018-06-21T04:17:33.958Z,21.00
2018-06-21T04:18:07.677Z,21.00
2018-06-21T04:18:41.284Z,21.00
2018-06-21T04:19:15.457Z,21.00
2018-06-21T04:19:49.069Z,21.00
2018-06-21T04:20:22.746Z,21.00
2018-06-21T04:20:57.189Z,21.00
2018-06-21T04:21:30.784Z,21.00
2018-06-21T04:22:04.441Z,21.00
2018-06-21T04:22:38.003Z,21.00
2018-06-21T04:23:11.605Z,21.00
2018-06-21T04:23:45.225Z,21.00
2018-06-21T04:24:52.097Z,21.00
2018-06-21T04:25:25.689Z,21.00
2018-06-21T04:25:59.694Z,21.00
2018-06-21T04:26:33.315Z,20.90
2018-06-21T04:27:07.416Z,21.00
2018-06-21T04:27:41.705Z,21.00
2018-06-21T04:28:15.252Z,20.90
2018-06-21T04:29:22.725Z,21.00
2018-06-21T04:29:56.316Z,21.00
2018-06-21T04:31:03.745Z,20.90
2018-06-21T04:31:37.592Z,20.90
2018-06-21T04:32:11.247Z,20.90
2018-06-21T04:32:44.805Z,20.90
2018-06-21T04:33:18.367Z,20.90
2018-06-21T04:33:52.679Z,20.90
2018-06-21T04:34:26.285Z,20.90
2018-06-21T04:34:59.888Z,20.90
2018-06-21T04:35:33.481Z,20.90
2018-06-21T04:36:07.236Z,20.90
2018-06-21T04:36:40.874Z,20.80
2018-06-21T04:37:14.517Z,20.90
2018-06-21T04:37:48.105Z,20.90
2018-06-21T04:38:21.789Z,20.80
2018-06-21T04:38:55.345Z,20.90
2018-06-21T04:39:28.933Z,20.80
2018-06-21T04:40:02.514Z,20.90
2018-06-21T04:40:36.110Z,20.90
2018-06-21T04:41:09.696Z,20.90
2018-06-21T04:41:43.312Z,20.90
2018-06-21T04:42:16.867Z,20.90
2018-06-21T04:42:50.488Z,20.90
2018-06-21T04:43:24.138Z,20.90
2018-06-21T04:43:57.732Z,20.90
2018-06-21T04:44:31.279Z,20.90
2018-06-21T04:45:05.313Z,20.80
2018-06-21T04:45:40.276Z,20.80
2018-06-21T04:46:13.848Z,20.90
2018-06-21T04:46:47.465Z,20.80
2018-06-21T04:47:21.112Z,20.90
2018-06-21T04:48:27.939Z,20.90
2018-06-21T04:49:01.782Z,20.90
2018-06-21T04:49:35.339Z,20.90
2018-06-21T04:50:09.189Z,20.90
2018-06-21T04:50:43.268Z,20.90
2018-06-21T04:51:50.166Z,20.80
2018-06-21T04:52:23.780Z,20.90
2018-06-21T04:52:58.026Z,20.90
2018-06-21T04:53:31.632Z,20.90
2018-06-21T04:54:05.987Z,20.80
2018-06-21T04:54:40.568Z,20.90
2018-06-21T04:55:14.659Z,20.90
2018-06-21T04:55:48.289Z,20.90
2018-06-21T04:56:21.936Z,20.90
2018-06-21T04:56:56.211Z,20.90
2018-06-21T04:57:30.462Z,20.90
2018-06-21T04:58:04.053Z,20.90
2018-06-21T04:58:37.682Z,20.90
2018-06-21T04:59:11.337Z,20.90
2018-06-21T04:59:44.927Z,20.90
2018-06-21T05:00:18.545Z,20.90
2018-06-21T05:00:52.155Z,20.90
2018-06-21T05:01:25.824Z,20.90
2018-06-21T05:02:00.668Z,20.90
2018-06-21T05:02:34.311Z,20.90
2018-06-21T05:03:07.943Z,20.90
2018-06-21T05:03:41.552Z,20.90
2018-06-21T05:04:15.673Z,20.90
2018-06-21T05:04:49.619Z,20.90
2018-06-21T05:05:23.229Z,20.90
2018-06-21T05:05:56.902Z,20.90
2018-06-21T05:06:30.489Z,20.90
2018-06-21T05:07:04.893Z,20.90
2018-06-21T05:07:38.522Z,20.90
2018-06-21T05:08:12.117Z,20.90
2018-06-21T05:08:45.782Z,20.90
2018-06-21T05:09:20.068Z,20.90
2018-06-21T05:09:54.212Z,20.90
2018-06-21T05:10:27.844Z,20.90
2018-06-21T05:11:34.745Z,20.90
2018-06-21T05:12:08.315Z,20.90
2018-06-21T05:12:42.372Z,20.90
2018-06-21T05:13:16.630Z,20.90
2018-06-21T05:13:50.204Z,20.90
2018-06-21T05:14:23.912Z,20.90
2018-06-21T05:14:57.511Z,20.90
2018-06-21T05:15:31.151Z,20.90
2018-06-21T05:16:04.749Z,20.80
2018-06-21T05:16:38.388Z,20.90
2018-06-21T05:17:12.012Z,20.90
2018-06-21T05:17:45.580Z,20.90
2018-06-21T05:18:19.318Z,20.80
2018-06-21T05:18:52.917Z,20.90
2018-06-21T05:19:26.536Z,20.90
2018-06-21T05:20:00.135Z,20.90
2018-06-21T05:20:33.684Z,20.90
2018-06-21T05:21:07.298Z,20.80
2018-06-21T05:21:42.468Z,20.80
2018-06-21T05:22:16.118Z,20.80
2018-06-21T05:22:49.719Z,20.80
2018-06-21T05:23:23.481Z,20.80
2018-06-21T05:23:57.872Z,20.80
2018-06-21T05:24:31.701Z,20.80
2018-06-21T05:25:05.835Z,20.80
2018-06-21T05:25:40.009Z,20.80
2018-06-21T05:26:13.575Z,20.80
2018-06-21T05:26:47.708Z,20.80
2018-06-21T05:27:21.314Z,20.70
2018-06-21T05:28:28.182Z,20.70
2018-06-21T05:29:02.312Z,20.80
2018-06-21T05:29:35.858Z,20.80
2018-06-21T05:30:09.416Z,20.80
2018-06-21T05:30:43.015Z,20.80
2018-06-21T05:31:17.846Z,20.80
2018-06-21T05:31:51.379Z,20.80
2018-06-21T05:32:25.300Z,20.80
2018-06-21T05:32:58.882Z,20.80
2018-06-21T05:33:32.980Z,20.80
2018-06-21T05:34:07.220Z,20.80
2018-06-21T05:34:40.791Z,20.80
2018-06-21T05:35:15.155Z,20.80
2018-06-21T05:35:49.569Z,20.80
2018-06-21T05:36:23.118Z,20.70
2018-06-21T05:36:57.244Z,20.70
2018-06-21T05:37:31.457Z,20.70
2018-06-21T05:38:05.054Z,20.70
2018-06-21T05:38:40.837Z,20.70
2018-06-21T05:39:48.840Z,20.70
2018-06-21T05:40:33.629Z,20.70
2018-06-21T05:41:07.210Z,20.70
2018-06-21T05:41:41.424Z,20.60
2018-06-21T05:42:14.976Z,20.70
2018-06-21T05:42:48.540Z,20.70
2018-06-21T05:43:22.143Z,20.60
2018-06-21T05:43:55.719Z,20.70
2018-06-21T05:44:30.641Z,20.60
2018-06-21T05:45:04.210Z,20.60
2018-06-21T05:45:37.847Z,20.60
2018-06-21T05:46:11.402Z,20.60
2018-06-21T05:46:45.885Z,20.60
2018-06-21T05:47:20.120Z,20.60
2018-06-21T05:47:53.654Z,20.60
2018-06-21T05:48:27.904Z,20.60
2018-06-21T05:49:34.718Z,20.60
2018-06-21T05:50:09.183Z,20.60
2018-06-21T05:50:42.823Z,20.60
2018-06-21T05:51:17.087Z,20.60
2018-06-21T05:51:50.619Z,20.60
2018-06-21T05:52:24.247Z,20.60
2018-06-21T05:52:58.626Z,20.60
2018-06-21T05:53:32.151Z,20.60
2018-06-21T05:54:05.932Z,20.50
2018-06-21T05:54:40.959Z,20.50
2018-06-21T05:55:14.560Z,20.50
2018-06-21T05:55:48.155Z,20.50
2018-06-21T05:56:22.165Z,20.50
2018-06-21T05:56:56.495Z,20.50
2018-06-21T05:57:30.063Z,20.50
2018-06-21T05:58:03.656Z,20.50
2018-06-21T05:58:37.247Z,20.50
2018-06-21T05:59:10.844Z,20.50
2018-06-21T05:59:44.428Z,20.50
2018-06-21T06:00:18.064Z,20.50
2018-06-21T06:00:52.272Z,20.50
2018-06-21T06:01:59.161Z,20.40
2018-06-21T06:02:32.686Z,20.40
2018-06-21T06:03:06.287Z,20.40
2018-06-21T06:03:39.856Z,20.50
2018-06-21T06:04:13.430Z,20.40
2018-06-21T06:04:47.544Z,20.40
2018-06-21T06:05:21.484Z,20.40
2018-06-21T06:05:55.056Z,20.40
2018-06-21T06:06:28.739Z,20.40
2018-06-21T06:07:02.318Z,20.40
2018-06-21T06:07:36.855Z,20.40
2018-06-21T06:08:43.688Z,20.40
2018-06-21T06:09:17.259Z,20.40
2018-06-21T06:09:50.849Z,20.40
2018-06-21T06:10:24.407Z,20.40
2018-06-21T06:10:57.971Z,20.40
2018-06-21T06:11:31.516Z,20.40
2018-06-21T06:12:06.628Z,20.40
2018-06-21T06:12:40.444Z,20.40
2018-06-21T06:13:14.124Z,20.40
2018-06-21T06:13:48.879Z,20.30
2018-06-21T06:14:55.676Z,20.30
2018-06-21T06:15:29.204Z,20.30
2018-06-21T06:16:02.746Z,20.30
2018-06-21T06:16:37.246Z,20.30
2018-06-21T06:17:10.756Z,20.30
2018-06-21T06:17:44.384Z,20.30
2018-06-21T06:18:17.972Z,20.30
2018-06-21T06:18:52.164Z,20.30
2018-06-21T06:19:25.788Z,20.30
2018-06-21T06:20:00.399Z,20.30
2018-06-21T06:20:33.919Z,20.30
2018-06-21T06:21:08.281Z,20.30
2018-06-21T06:21:42.414Z,20.30
2018-06-21T06:22:16.299Z,20.30
2018-06-21T06:22:49.868Z,20.20
2018-06-21T06:23:23.944Z,20.30
2018-06-21T06:23:57.456Z,20.30
2018-06-21T06:24:31.030Z,20.30
2018-06-21T06:25:04.655Z,20.30
2018-06-21T06:25:38.195Z,20.30
2018-06-21T06:26:12.032Z,20.30
2018-06-21T06:26:46.334Z,20.20
2018-06-21T06:27:19.892Z,20.20
2018-06-21T06:27:53.579Z,20.20
2018-06-21T06:28:27.173Z,20.20
2018-06-21T06:29:33.913Z,20.30
2018-06-21T06:30:08.220Z,20.30
2018-06-21T06:30:42.419Z,20.30
2018-06-21T06:31:15.954Z,20.30
2018-06-21T06:31:50.284Z,20.20
2018-06-21T06:32:24.443Z,20.30
2018-06-21T06:32:58.533Z,20.30
2018-06-21T06:33:32.083Z,20.30
2018-06-21T06:34:05.729Z,20.30
2018-06-21T06:34:40.712Z,20.30
2018-06-21T06:35:14.991Z,20.40
2018-06-21T06:35:48.592Z,20.30
2018-06-21T06:36:22.816Z,20.40
2018-06-21T06:37:31.113Z,20.40
2018-06-21T06:38:04.721Z,20.30
2018-06-21T06:38:38.274Z,20.30
2018-06-21T06:39:18.031Z,20.30
2018-06-21T06:39:52.180Z,20.30
2018-06-21T06:40:26.657Z,20.30
2018-06-21T06:41:00.636Z,20.30
2018-06-21T06:41:35.110Z,20.30
2018-06-21T06:42:08.752Z,20.30
2018-06-21T06:42:42.788Z,20.30
2018-06-21T06:43:16.344Z,20.30
2018-06-21T06:43:49.898Z,20.30
2018-06-21T06:44:23.479Z,20.30
2018-06-21T06:44:57.273Z,20.30
2018-06-21T06:45:30.894Z,20.30
2018-06-21T06:46:05.605Z,20.30
2018-06-21T06:46:39.180Z,20.40
2018-06-21T06:47:12.759Z,20.40
2018-06-21T06:47:46.348Z,20.30
2018-06-21T06:48:19.938Z,20.40
2018-06-21T06:48:53.835Z,20.40
2018-06-21T06:49:28.748Z,20.40
2018-06-21T06:50:02.331Z,20.40
2018-06-21T06:51:09.309Z,20.40
2018-06-21T06:52:16.089Z,20.40
2018-06-21T06:52:50.323Z,20.30
2018-06-21T06:53:23.938Z,20.40
2018-06-21T06:53:57.488Z,20.30
2018-06-21T06:54:31.075Z,20.40
2018-06-21T06:55:04.683Z,20.30
2018-06-21T06:55:38.202Z,20.30
2018-06-21T06:56:11.751Z,20.30
2018-06-21T06:56:46.178Z,20.30
2018-06-21T06:57:19.884Z,20.30
2018-06-21T06:57:53.492Z,20.30
2018-06-21T06:58:27.711Z,20.30
2018-06-21T06:59:01.600Z,20.30
2018-06-21T06:59:35.307Z,20.30
2018-06-21T07:00:10.287Z,20.30
2018-06-21T07:01:17.750Z,20.30
2018-06-21T07:01:51.356Z,20.30
2018-06-21T07:02:24.885Z,20.20
2018-06-21T07:02:58.417Z,20.30
2018-06-21T07:03:32.084Z,20.30
2018-06-21T07:04:06.432Z,20.30
2018-06-21T07:04:40.025Z,20.30
2018-06-21T07:05:46.703Z,20.20
2018-06-21T07:06:20.254Z,20.20
2018-06-21T07:06:53.825Z,20.20
2018-06-21T07:07:27.400Z,20.20
2018-06-21T07:08:01.467Z,20.20
2018-06-21T07:08:35.142Z,20.20
2018-06-21T07:09:09.461Z,20.20
2018-06-21T07:09:43.035Z,20.20
2018-06-21T07:10:18.119Z,20.20
2018-06-21T07:10:52.186Z,20.20
2018-06-21T07:11:26.734Z,20.20
2018-06-21T07:12:00.332Z,20.20
2018-06-21T07:12:34.532Z,20.20
2018-06-21T07:13:08.088Z,20.20
2018-06-21T07:13:42.143Z,20.20
2018-06-21T07:14:15.705Z,20.20
2018-06-21T07:14:49.234Z,20.30
2018-06-21T07:15:22.848Z,20.20
2018-06-21T07:15:57.027Z,20.20
2018-06-21T07:16:31.528Z,20.20
2018-06-21T07:17:05.215Z,20.30
2018-06-21T07:17:39.133Z,20.30
2018-06-21T07:18:13.954Z,20.30
2018-06-21T07:18:47.531Z,20.30
2018-06-21T07:19:21.051Z,20.30
2018-06-21T07:19:54.813Z,20.30
2018-06-21T07:20:28.420Z,20.40
2018-06-21T07:21:01.957Z,20.40
2018-06-21T07:21:38.756Z,20.40
2018-06-21T07:22:12.327Z,20.40
2018-06-21T07:22:46.706Z,20.40
2018-06-21T07:23:20.323Z,20.40
2018-06-21T07:23:53.942Z,20.50
2018-06-21T07:24:27.479Z,20.50
2018-06-21T07:25:01.056Z,20.50
2018-06-21T07:25:35.315Z,20.50
2018-06-21T07:26:08.953Z,20.50
2018-06-21T07:26:42.618Z,20.60
2018-06-21T07:27:17.709Z,20.60
2018-06-21T07:27:52.032Z,20.60
2018-06-21T07:28:26.350Z,20.60
2018-06-21T07:29:00.260Z,20.60
2018-06-21T07:29:34.116Z,20.60
2018-06-21T07:30:07.712Z,20.70
2018-06-21T07:30:41.338Z,20.70
2018-06-21T07:31:14.868Z,20.70
2018-06-21T07:31:48.464Z,20.70
2018-06-21T07:32:22.058Z,20.70
2018-06-21T07:32:56.293Z,20.70
2018-06-21T07:33:29.894Z,20.70
2018-06-21T07:34:38.358Z,20.70
2018-06-21T07:35:12.417Z,20.70
2018-06-21T07:35:45.972Z,20.70
2018-06-21T07:36:53.344Z,20.80
2018-06-21T07:37:27.119Z,20.80